Time;durP1;ratioP1;P1;durP2;ratioP2;P2;SDS_P1;SDS_P2;PMS_P1;PMS_P2;Temp;Humidity;BMP_temperature;BMP_pressure;BME280_temperature;BME280_humidity;BME280_pressure;Samples;Min_cycle;Max_cycle;Signal;HPM_P1;HPM_P2
2022/10/08 00:01:14;;;;;;;;;;;;;;;10.48;77.74;101122.88;5092639;28;19924;-68
2022/10/08 00:03:42;;;;;;;;;;;;;;;10.34;77.96;101125.28;5087423;28;20543;-68
2022/10/08 00:06:11;;;;;;;;;;;;;;;10.31;78.72;101131.47;5092082;28;20391;-68
2022/10/08 00:08:38;;;;;;;;;;;;;;;10.45;77.89;101129.13;5086483;28;19928;-68
2022/10/08 00:11:06;;;;;;;;;;;;;;;10.33;77.46;101120.94;5087368;28;20022;-69
2022/10/08 00:13:39;;;;;;;;;;;;;;;10.33;78.35;101127.03;5086266;28;20018;-68
2022/10/08 00:16:06;;;;;;;;;;;;;;;10.40;77.90;101125.00;5087933;28;19924;-68
2022/10/08 00:18:33;;;;;;;;;;;;;;;10.58;76.95;101124.16;5092474;28;19928;-68
2022/10/08 00:21:04;;;;;;;;;;;;;;;10.42;77.11;101129.25;5088588;28;20382;-68
2022/10/08 00:23:30;;;;;;;;;;;;;;;10.64;76.61;101131.78;5098295;28;20342;-69
2022/10/08 00:25:56;;;;;;;;;;;;;;;10.83;75.97;101134.41;5088565;28;19931;-69
2022/10/08 00:28:23;;;;;;;;;;;;;;;10.45;76.86;101133.50;5086557;28;19932;-69
2022/10/08 00:30:49;;;;;;;;;;;;;;;10.35;78.71;101133.06;5087043;28;19930;-68
2022/10/08 00:33:15;;;;;;;;;;;;;;;10.58;79.31;101124.16;5089698;28;19931;-68
2022/10/08 00:35:43;;;;;;;;;;;;;;;10.58;79.18;101129.41;5089105;28;20376;-68
2022/10/08 00:38:09;;;;;;;;;;;;;;;10.68;78.90;101130.69;5087493;28;19931;-68
2022/10/08 00:40:41;;;;;;;;;;;;;;;10.52;80.22;101127.06;5088050;28;20015;-68
2022/10/08 00:43:10;;;;;;;;;;;;;;;10.89;79.01;101123.59;5087067;28;19933;-68
2022/10/08 00:45:38;;;;;;;;;;;;;;;11.11;77.96;101119.03;5085482;28;19924;-68
2022/10/08 00:48:04;;;;;;;;;;;;;;;11.18;76.65;101126.56;5087473;28;20299;-68
2022/10/08 00:50:32;;;;;;;;;;;;;;;10.91;77.76;101127.00;5087966;28;19931;-68
2022/10/08 00:53:01;;;;;;;;;;;;;;;11.06;78.72;101113.16;5086600;28;19950;-68
2022/10/08 00:55:28;;;;;;;;;;;;;;;11.17;78.97;101121.38;5088549;28;20440;-68
2022/10/08 00:57:57;;;;;;;;;;;;;;;11.24;78.89;101118.38;5088239;28;19928;-68
2022/10/08 01:00:25;;;;;;;;;;;;;;;11.18;79.71;101116.06;5087969;28;19931;-67
2022/10/08 01:02:51;;;;;;;;;;;;;;;11.29;80.31;101110.28;5087750;28;19925;-69
2022/10/08 01:05:19;;;;;;;;;;;;;;;11.40;80.08;101110.59;5088305;28;20014;-68
2022/10/08 01:07:48;;;;;;;;;;;;;;;11.86;77.88;101103.91;5085906;28;20015;-68
2022/10/08 01:10:19;;;;;;;;;;;;;;;11.77;78.25;101098.28;5086354;28;19968;-68
2022/10/08 01:12:49;;;;;;;;;;;;;;;12.00;76.45;101100.59;5085557;28;19931;-68
2022/10/08 01:15:22;;;;;;;;;;;;;;;11.89;76.37;101095.91;5087059;28;19928;-68
2022/10/08 01:17:51;;;;;;;;;;;;;;;11.86;77.13;101095.22;5083291;28;20387;-69
2022/10/08 01:20:36;;;;;;;;;;;;;;;12.10;76.17;101097.41;5086573;28;20388;-68
2022/10/08 01:23:20;;;;;;;;;;;;;;;12.00;76.67;101100.59;5088170;28;19935;-68
2022/10/08 01:25:53;;;;;;;;;;;;;;;11.91;76.89;101098.44;5087922;28;19932;-69
2022/10/08 01:28:23;;;;;;;;;;;;;;;12.04;76.49;101086.38;5087362;28;20287;-69
2022/10/08 01:30:51;;;;;;;;;;;;;;;11.89;76.86;101092.41;5086296;28;19963;-68
2022/10/08 01:33:21;;;;;;;;;;;;;;;11.59;77.82;101087.78;5087549;28;19928;-68
2022/10/08 01:35:52;;;;;;;;;;;;;;;11.69;78.01;101080.25;5086983;28;19924;-68
2022/10/08 01:38:19;;;;;;;;;;;;;;;11.73;78.13;101091.50;5087497;28;19931;-69
2022/10/08 01:40:47;;;;;;;;;;;;;;;11.87;77.49;101095.13;5086707;28;19924;-69
2022/10/08 01:43:16;;;;;;;;;;;;;;;12.07;76.20;101089.69;5084857;28;20403;-69
2022/10/08 01:45:46;;;;;;;;;;;;;;;12.03;75.97;101082.03;5087056;28;19928;-68
2022/10/08 01:48:16;;;;;;;;;;;;;;;11.98;76.69;101092.78;5087870;28;19973;-68
2022/10/08 01:50:45;;;;;;;;;;;;;;;11.67;77.74;101080.34;5087452;28;20383;-68
2022/10/08 01:53:15;;;;;;;;;;;;;;;11.54;78.96;101075.78;5086527;28;19959;-68
2022/10/08 01:55:43;;;;;;;;;;;;;;;11.62;78.08;101077.09;5086587;28;19927;-68
2022/10/08 01:58:12;;;;;;;;;;;;;;;11.74;78.03;101075.66;5085888;28;20375;-68
2022/10/08 02:00:41;;;;;;;;;;;;;;;11.82;77.50;101070.03;5091986;28;19928;-68
2022/10/08 02:03:10;;;;;;;;;;;;;;;11.69;77.92;101075.00;5097155;28;19977;-68
2022/10/08 02:05:37;;;;;;;;;;;;;;;11.95;76.90;101071.06;5087340;28;19947;-68
2022/10/08 02:08:04;;;;;;;;;;;;;;;11.96;77.34;101068.38;5086740;28;19928;-68
2022/10/08 02:10:30;;;;;;;;;;;;;;;11.85;77.33;101075.09;5084754;28;19959;-68
2022/10/08 02:12:57;;;;;;;;;;;;;;;12.06;76.35;101066.94;5086071;28;19939;-68
2022/10/08 02:15:26;;;;;;;;;;;;;;;11.94;76.85;101069.34;5086223;28;20147;-68
2022/10/08 02:17:55;;;;;;;;;;;;;;;12.36;75.06;101063.63;5085865;28;20389;-68
2022/10/08 02:20:28;;;;;;;;;;;;;;;12.41;74.29;101065.09;5086376;28;19928;-68
2022/10/08 02:22:57;;;;;;;;;;;;;;;12.47;73.67;101059.50;5085372;28;20422;-68
2022/10/08 02:25:28;;;;;;;;;;;;;;;12.00;74.70;101075.16;5085154;28;20376;-68
2022/10/08 02:27:59;;;;;;;;;;;;;;;11.60;77.40;101081.56;5087029;28;20022;-68
2022/10/08 02:30:32;;;;;;;;;;;;;;;11.51;78.80;101075.94;5090921;28;19924;-68
2022/10/08 02:33:01;;;;;;;;;;;;;;;11.82;77.48;101083.16;5091519;28;19925;-68
2022/10/08 02:35:33;;;;;;;;;;;;;;;11.63;78.22;101080.59;5093572;28;19927;-68
2022/10/08 02:38:01;;;;;;;;;;;;;;;11.65;78.29;101079.56;5098573;28;19932;-68
2022/10/08 02:40:29;;;;;;;;;;;;;;;11.82;77.19;101081.38;5110444;28;19927;-68
2022/10/08 02:42:58;;;;;;;;;;;;;;;11.72;77.46;101080.13;5110700;28;19928;-67
2022/10/08 02:45:27;;;;;;;;;;;;;;;11.97;76.70;101079.75;5091084;28;19928;-67
2022/10/08 02:47:56;;;;;;;;;;;;;;;11.93;76.29;101092.19;5090009;28;20325;-68
2022/10/08 02:50:24;;;;;;;;;;;;;;;12.13;75.31;101091.13;5089621;28;19924;-68
2022/10/08 02:52:52;;;;;;;;;;;;;;;12.04;75.33;101091.63;5089406;28;19932;-68
2022/10/08 02:55:23;;;;;;;;;;;;;;;11.97;75.74;101088.44;5088701;28;19931;-68
2022/10/08 02:57:54;;;;;;;;;;;;;;;12.15;74.67;101084.88;5085678;28;19931;-68
2022/10/08 03:00:21;;;;;;;;;;;;;;;12.15;74.08;101084.03;5079713;28;19924;-68
2022/10/08 03:02:51;;;;;;;;;;;;;;;11.88;75.45;101082.81;5095918;28;19943;-67
2022/10/08 03:05:19;;;;;;;;;;;;;;;12.00;74.85;101080.44;5091926;28;19935;-67
2022/10/08 03:07:46;;;;;;;;;;;;;;;12.00;74.35;101079.56;5089624;28;20307;-67
2022/10/08 03:10:14;;;;;;;;;;;;;;;12.20;73.91;101087.25;5089782;28;19932;-67
2022/10/08 03:12:40;;;;;;;;;;;;;;;12.07;73.83;101080.94;5089372;28;19989;-67
2022/10/08 03:15:10;;;;;;;;;;;;;;;11.93;75.29;101084.31;5088565;28;19931;-67
2022/10/08 03:17:38;;;;;;;;;;;;;;;11.96;75.42;101088.53;5089255;28;20431;-68
2022/10/08 03:20:05;;;;;;;;;;;;;;;11.90;75.54;101094.94;5087449;28;19970;-67
2022/10/08 03:22:33;;;;;;;;;;;;;;;12.01;75.19;101091.78;5087661;28;19951;-68
2022/10/08 03:24:59;;;;;;;;;;;;;;;12.08;75.35;101087.91;5088633;28;19986;-68
2022/10/08 03:27:27;;;;;;;;;;;;;;;12.12;74.18;101092.91;5088076;28;19924;-68
2022/10/08 03:29:56;;;;;;;;;;;;;;;11.96;75.14;101094.66;5087218;28;19924;-67
2022/10/08 03:32:22;;;;;;;;;;;;;;;11.81;74.81;101084.06;5089778;28;19946;-67
2022/10/08 03:34:48;;;;;;;;;;;;;;;11.39;75.77;101087.91;5088313;28;19924;-67
2022/10/08 03:37:14;;;;;;;;;;;;;;;11.37;76.41;101081.03;5087395;28;19931;-68
2022/10/08 03:39:41;;;;;;;;;;;;;;;11.43;76.12;101089.44;5088499;28;20398;-67
2022/10/08 03:42:08;;;;;;;;;;;;;;;11.37;77.16;101081.03;5087747;28;20314;-67
2022/10/08 03:44:35;;;;;;;;;;;;;;;11.32;78.06;101081.25;5089053;28;19931;-67
2022/10/08 03:47:02;;;;;;;;;;;;;;;11.38;78.15;101085.38;5089467;28;20386;-67
2022/10/08 03:49:28;;;;;;;;;;;;;;;11.49;77.74;101081.25;5072890;28;19924;-67
2022/10/08 03:51:54;;;;;;;;;;;;;;;11.67;76.91;101077.72;5086700;28;20497;-68
2022/10/08 03:54:21;;;;;;;;;;;;;;;11.65;76.91;101074.31;5089311;28;19924;-68
2022/10/08 03:56:47;;;;;;;;;;;;;;;11.61;77.08;101071.91;5087352;28;19928;-67
2022/10/08 03:59:13;;;;;;;;;;;;;;;11.59;77.34;101074.63;5088982;28;19931;-68
2022/10/08 04:01:41;;;;;;;;;;;;;;;11.52;77.25;101075.03;5088681;28;20346;-68
2022/10/08 04:04:07;;;;;;;;;;;;;;;11.32;78.47;101078.63;5087395;28;19939;-68
2022/10/08 04:06:34;;;;;;;;;;;;;;;11.28;78.19;101078.84;5079189;28;19935;-68
2022/10/08 04:09:00;;;;;;;;;;;;;;;11.19;78.48;101072.28;5087434;28;20327;-67
2022/10/08 04:11:27;;;;;;;;;;;;;;;11.20;78.61;101074.81;5087702;28;19963;-69
2022/10/08 04:13:53;;;;;;;;;;;;;;;11.41;77.59;101079.97;5088726;28;19928;-67
2022/10/08 04:16:20;;;;;;;;;;;;;;;11.28;77.05;101084.94;5095371;28;20378;-67
2022/10/08 04:18:47;;;;;;;;;;;;;;;11.30;76.06;101083.13;5107150;28;19924;-67
2022/10/08 04:21:16;;;;;;;;;;;;;;;11.38;76.59;101082.75;5107344;28;19974;-66
2022/10/08 04:23:43;;;;;;;;;;;;;;;11.41;75.97;101085.22;5109532;28;19927;-66
2022/10/08 04:26:10;;;;;;;;;;;;;;;11.07;75.50;101086.00;5097782;28;20563;-66
2022/10/08 04:28:37;;;;;;;;;;;;;;;11.01;75.95;101081.06;5087085;28;19928;-66
2022/10/08 04:31:04;;;;;;;;;;;;;;;10.98;74.94;101078.56;5069662;28;20015;-66
2022/10/08 04:33:32;;;;;;;;;;;;;;;10.86;74.90;101076.53;5058162;28;19944;-67
2022/10/08 04:36:00;;;;;;;;;;;;;;;10.77;73.69;101082.19;5068191;28;20379;-67
2022/10/08 04:38:26;;;;;;;;;;;;;;;10.17;75.55;101079.69;5049048;28;19928;-67
2022/10/08 04:41:00;;;;;;;;;;;;;;;9.85;80.83;101069.75;5038670;28;20296;-67
2022/10/08 04:43:27;;;;;;;;;;;;;;;9.76;82.54;101085.84;5064480;28;19931;-67
2022/10/08 04:45:53;;;;;;;;;;;;;;;9.70;84.36;101070.41;5073066;28;19924;-67
2022/10/08 04:48:19;;;;;;;;;;;;;;;10.10;81.95;101080.00;5068022;28;20375;-68
2022/10/08 04:50:45;;;;;;;;;;;;;;;10.26;80.44;101081.06;5072842;28;19928;-67
2022/10/08 04:53:13;;;;;;;;;;;;;;;10.55;79.47;101077.09;5077437;28;19923;-67
2022/10/08 04:55:39;;;;;;;;;;;;;;;10.51;79.17;101079.03;5063131;28;19931;-67
2022/10/08 04:58:06;;;;;;;;;;;;;;;10.55;79.49;101087.59;5068381;28;19924;-66
2022/10/08 05:00:32;;;;;;;;;;;;;;;10.53;80.84;101074.53;5068402;28;19924;-67
2022/10/08 05:02:58;;;;;;;;;;;;;;;10.81;79.45;101078.50;5059041;28;20424;-66
2022/10/08 05:05:24;;;;;;;;;;;;;;;10.52;80.73;101067.63;5065142;28;19924;-66
2022/10/08 05:07:53;;;;;;;;;;;;;;;10.61;80.67;101072.44;5068673;28;19931;-66
2022/10/08 05:10:22;;;;;;;;;;;;;;;10.72;80.12;101070.16;5058393;28;19924;-66
2022/10/08 05:12:48;;;;;;;;;;;;;;;10.84;78.14;101062.63;5068029;28;19931;-66
2022/10/08 05:15:15;;;;;;;;;;;;;;;10.52;77.73;101067.63;5066419;28;19928;-67
2022/10/08 05:17:41;;;;;;;;;;;;;;;10.87;76.72;101070.34;5058272;28;19928;-67
2022/10/08 05:20:08;;;;;;;;;;;;;;;10.60;76.72;101070.75;5067684;28;19924;-67
2022/10/08 05:22:34;;;;;;;;;;;;;;;10.17;80.61;101077.06;5068939;28;19931;-67
2022/10/08 05:25:00;;;;;;;;;;;;;;;10.33;81.54;101074.63;5058422;28;19931;-67
2022/10/08 05:27:28;;;;;;;;;;;;;;;10.68;79.35;101078.22;5074781;28;19930;-66
2022/10/08 05:29:54;;;;;;;;;;;;;;;10.35;80.45;101077.19;5067676;28;20609;-66
2022/10/08 05:32:20;;;;;;;;;;;;;;;10.59;80.40;101074.28;5057465;28;19932;-66
2022/10/08 05:34:47;;;;;;;;;;;;;;;10.68;79.30;101068.59;5070199;28;19924;-66
2022/10/08 05:37:13;;;;;;;;;;;;;;;10.78;79.37;101073.41;5075024;28;19973;-66
2022/10/08 05:39:39;;;;;;;;;;;;;;;10.38;80.67;101074.41;5078571;28;19923;-66
2022/10/08 05:42:06;;;;;;;;;;;;;;;10.57;79.97;101070.00;5074540;28;19924;-66
2022/10/08 05:44:33;;;;;;;;;;;;;;;10.70;79.18;101069.38;5069688;28;20394;-66
2022/10/08 05:46:59;;;;;;;;;;;;;;;10.81;78.38;101073.28;5060077;28;19931;-66
2022/10/08 05:49:26;;;;;;;;;;;;;;;10.96;78.06;101077.78;5082101;28;19928;-66
2022/10/08 05:51:52;;;;;;;;;;;;;;;11.16;77.41;101085.53;5068258;28;20372;-66
2022/10/08 05:54:18;;;;;;;;;;;;;;;10.77;78.06;101076.97;5058039;28;19925;-66
2022/10/08 05:56:45;;;;;;;;;;;;;;;11.11;77.83;101090.19;5074515;28;19931;-66
2022/10/08 05:59:15;;;;;;;;;;;;;;;11.47;74.66;101098.03;5087923;28;19935;-67
2022/10/08 06:01:42;;;;;;;;;;;;;;;11.43;74.89;101091.22;5068924;28;19935;-67
2022/10/08 06:04:09;;;;;;;;;;;;;;;11.63;75.18;101104.22;5090260;28;19931;-67
2022/10/08 06:06:36;;;;;;;;;;;;;;;11.68;73.82;101107.44;5088187;28;19925;-67
2022/10/08 06:09:02;;;;;;;;;;;;;;;11.76;73.66;101104.47;5085058;28;20307;-68
2022/10/08 06:11:29;;;;;;;;;;;;;;;11.05;74.80;101103.56;5086283;28;20022;-66
2022/10/08 06:13:56;;;;;;;;;;;;;;;11.02;76.89;101101.09;5084735;28;19947;-66
2022/10/08 06:16:23;;;;;;;;;;;;;;;11.50;75.66;101101.34;5085006;28;19931;-66
2022/10/08 06:18:51;;;;;;;;;;;;;;;11.32;77.65;101110.13;5098355;28;19928;-65
2022/10/08 06:21:19;;;;;;;;;;;;;;;11.64;78.05;101106.75;5105850;28;19932;-65
2022/10/08 06:23:46;;;;;;;;;;;;;;;11.49;79.30;101114.56;5076878;28;20298;-65
2022/10/08 06:26:13;;;;;;;;;;;;;;;12.04;77.85;101110.88;5085759;28;19924;-65
2022/10/08 06:28:39;;;;;;;;;;;;;;;12.59;76.34;101114.06;5085439;28;19928;-65
2022/10/08 06:31:06;;;;;;;;;;;;;;;13.20;74.10;101108.06;5084077;28;19924;-65
2022/10/08 06:33:33;;;;;;;;;;;;;;;12.83;75.00;101111.88;5084196;28;20397;-65
2022/10/08 06:36:03;;;;;;;;;;;;;;;13.36;74.29;101111.53;5087630;28;19985;-65
2022/10/08 06:38:29;;;;;;;;;;;;;;;14.20;71.49;101123.22;5104010;28;20013;-65
2022/10/08 06:40:56;;;;;;;;;;;;;;;14.49;70.52;101121.47;5102911;28;20383;-65
2022/10/08 06:43:22;;;;;;;;;;;;;;;14.44;69.97;101123.56;5070965;28;20487;-66
2022/10/08 06:45:49;;;;;;;;;;;;;;;14.84;68.64;101135.97;5090989;28;19924;-67
2022/10/08 06:48:15;;;;;;;;;;;;;;;15.56;66.93;101130.38;5100018;28;19945;-67
2022/10/08 06:50:41;;;;;;;;;;;;;;;15.98;65.51;101123.19;5084650;28;19931;-67
2022/10/08 06:53:09;;;;;;;;;;;;;;;16.42;63.31;101126.25;5084563;28;19928;-67
2022/10/08 06:55:36;;;;;;;;;;;;;;;16.98;62.49;101118.75;5099834;28;19931;-68
2022/10/08 06:58:02;;;;;;;;;;;;;;;17.36;60.59;101130.06;5088601;28;20636;-68
2022/10/08 07:00:29;;;;;;;;;;;;;;;17.45;61.32;101136.47;5097585;28;19924;-68
2022/10/08 07:02:56;;;;;;;;;;;;;;;17.72;59.86;101130.97;5076221;28;20027;-68
2022/10/08 07:05:22;;;;;;;;;;;;;;;17.66;59.21;101131.44;5075676;28;22242;-68
2022/10/08 07:07:48;;;;;;;;;;;;;;;17.73;58.27;101132.66;5075767;28;20549;-68
2022/10/08 07:10:16;;;;;;;;;;;;;;;17.88;57.60;101139.47;5087056;28;19931;-67
2022/10/08 07:12:42;;;;;;;;;;;;;;;18.23;56.53;101147.38;5082160;28;20011;-67
2022/10/08 07:15:09;;;;;;;;;;;;;;;18.72;55.25;101157.72;5059163;28;19924;-67
2022/10/08 07:17:36;;;;;;;;;;;;;;;18.98;54.26;101156.50;5069905;28;19932;-67
2022/10/08 07:20:02;;;;;;;;;;;;;;;19.09;53.98;101156.47;5081428;28;19924;-68
2022/10/08 07:22:28;;;;;;;;;;;;;;;18.72;54.54;101155.06;5062851;28;19925;-68
2022/10/08 07:24:55;;;;;;;;;;;;;;;18.69;55.45;101155.31;5071811;28;19924;-68
2022/10/08 07:27:23;;;;;;;;;;;;;;;18.22;56.46;101153.63;5072070;28;19935;-68
2022/10/08 07:29:49;;;;;;;;;;;;;;;17.56;59.01;101160.41;5059653;28;19932;-68
2022/10/08 07:32:15;;;;;;;;;;;;;;;17.62;59.96;101151.19;5070681;28;20396;-68
2022/10/08 07:34:42;;;;;;;;;;;;;;;18.26;58.62;101157.75;5074502;28;19932;-68
2022/10/08 07:37:08;;;;;;;;;;;;;;;17.89;58.21;101165.88;5060375;28;19981;-69
2022/10/08 07:39:35;;;;;;;;;;;;;;;18.47;57.90;101156.97;5076656;28;20079;-69
2022/10/08 07:42:01;;;;;;;;;;;;;;;18.85;54.59;101155.75;5083263;28;20340;-69
2022/10/08 07:44:29;;;;;;;;;;;;;;;19.06;54.94;101155.88;5066661;28;20371;-69
2022/10/08 07:46:55;;;;;;;;;;;;;;;19.52;54.70;101153.00;5071064;28;19928;-69
2022/10/08 07:49:22;;;;;;;;;;;;;;;19.46;53.01;101151.69;5072830;28;19936;-69
2022/10/08 07:51:48;;;;;;;;;;;;;;;18.90;53.83;101158.91;5073551;28;20575;-69
2022/10/08 07:54:15;;;;;;;;;;;;;;;18.10;56.47;101168.72;5076292;28;20380;-69
2022/10/08 07:56:42;;;;;;;;;;;;;;;18.27;56.74;101173.56;5075135;28;19934;-69
2022/10/08 07:59:08;;;;;;;;;;;;;;;18.18;56.85;101168.13;5079157;28;19924;-69
2022/10/08 08:01:36;;;;;;;;;;;;;;;17.57;58.32;101172.75;5083785;28;20482;-69
2022/10/08 08:04:03;;;;;;;;;;;;;;;18.00;57.73;101175.66;5073588;28;19928;-70
2022/10/08 08:06:30;;;;;;;;;;;;;;;18.23;57.26;101182.72;5073693;28;19924;-69
2022/10/08 08:08:57;;;;;;;;;;;;;;;17.97;57.75;101183.88;5073775;28;20012;-69
2022/10/08 08:11:24;;;;;;;;;;;;;;;18.43;56.27;101187.38;5087690;28;19986;-69
2022/10/08 08:13:51;;;;;;;;;;;;;;;17.83;58.20;101187.56;5067565;28;19927;-69
2022/10/08 08:16:18;;;;;;;;;;;;;;;17.50;59.58;101188.22;5065234;28;20475;-69
2022/10/08 08:18:47;;;;;;;;;;;;;;;16.79;61.56;101190.75;5068322;28;19928;-69
2022/10/08 08:21:15;;;;;;;;;;;;;;;16.96;61.89;101194.88;5061040;28;19998;-69
2022/10/08 08:23:42;;;;;;;;;;;;;;;17.19;61.36;101194.03;5069886;28;19928;-69
2022/10/08 08:26:09;;;;;;;;;;;;;;;16.98;60.87;101203.53;5068928;28;19924;-69
2022/10/08 08:28:36;;;;;;;;;;;;;;;16.85;61.55;101213.31;5058015;28;19928;-69
2022/10/08 08:31:09;;;;;;;;;;;;;;;16.84;61.74;101211.63;5070262;28;19961;-69
2022/10/08 08:33:35;;;;;;;;;;;;;;;16.57;62.73;101206.44;5051845;28;20296;-68
2022/10/08 08:36:04;;;;;;;;;;;;;;;16.84;62.50;101212.47;5059804;28;19980;-69
2022/10/08 08:38:30;;;;;;;;;;;;;;;16.96;62.84;101216.88;5069152;28;19935;-69
2022/10/08 08:41:05;;;;;;;;;;;;;;;17.06;62.79;101214.44;5078969;28;19932;-69
2022/10/08 08:43:32;;;;;;;;;;;;;;;16.87;63.77;101222.84;5065296;28;20014;-69
2022/10/08 08:45:59;;;;;;;;;;;;;;;16.85;64.09;101215.97;5072081;28;19956;-69
2022/10/08 08:48:27;;;;;;;;;;;;;;;16.87;64.13;101222.00;5069862;28;19932;-69
2022/10/08 08:50:55;;;;;;;;;;;;;;;16.71;64.37;101226.66;5058196;28;19963;-69
2022/10/08 08:53:23;;;;;;;;;;;;;;;16.68;65.13;101221.56;5068658;28;20288;-69
2022/10/08 08:55:52;;;;;;;;;;;;;;;16.65;65.16;101224.44;5084568;28;20360;-68
2022/10/08 08:58:25;;;;;;;;;;;;;;;16.68;63.81;101227.72;5072234;28;19925;-69
2022/10/08 09:00:56;;;;;;;;;;;;;;;16.74;64.22;101232.59;5087688;28;19923;-69
2022/10/08 09:03:26;;;;;;;;;;;;;;;16.46;64.75;101225.69;5069211;28;19931;-69
2022/10/08 09:05:56;;;;;;;;;;;;;;;16.05;66.15;101217.03;5067838;28;19932;-69
2022/10/08 09:08:27;;;;;;;;;;;;;;;16.06;66.36;101218.72;5057325;28;20334;-69
2022/10/08 09:10:55;;;;;;;;;;;;;;;16.07;65.88;101237.13;5057820;28;22012;-69
2022/10/08 09:13:24;;;;;;;;;;;;;;;16.24;65.61;101238.66;5069014;28;19955;-69
2022/10/08 09:15:51;;;;;;;;;;;;;;;16.11;65.68;101236.94;5050361;28;19977;-69
2022/10/08 09:18:17;;;;;;;;;;;;;;;16.04;65.70;101233.84;5069432;28;19935;-70
2022/10/08 09:20:44;;;;;;;;;;;;;;;15.71;67.01;101239.56;5079017;28;19951;-69
2022/10/08 09:23:12;;;;;;;;;;;;;;;15.62;67.31;101241.97;5063855;28;20346;-69
2022/10/08 09:25:41;;;;;;;;;;;;;;;15.87;67.15;101255.28;5079824;28;19927;-70
2022/10/08 09:28:07;;;;;;;;;;;;;;;15.83;66.66;101259.06;5076394;28;19928;-70
2022/10/08 09:30:35;;;;;;;;;;;;;;;15.88;67.24;101268.41;5073472;28;19932;-69
2022/10/08 09:33:04;;;;;;;;;;;;;;;15.88;67.44;101280.78;5068302;28;19924;-69
2022/10/08 09:35:32;;;;;;;;;;;;;;;15.85;67.04;101281.81;5066905;28;19931;-69
2022/10/08 09:37:59;;;;;;;;;;;;;;;16.15;65.82;101289.53;5057754;28;19974;-69
2022/10/08 09:40:26;;;;;;;;;;;;;;;15.92;66.86;101280.50;5070387;28;20272;-68
2022/10/08 09:43:10;;;;;;;;;;;;;;;16.00;66.90;101290.56;5066203;28;19931;-69
2022/10/08 09:45:39;;;;;;;;;;;;;;;16.04;66.75;101294.69;5066626;28;19990;-69
2022/10/08 09:48:22;;;;;;;;;;;;;;;16.11;66.79;101303.09;5067493;28;19924;-69
2022/10/08 09:50:51;;;;;;;;;;;;;;;16.17;66.66;101297.38;5066485;28;19925;-69
2022/10/08 09:53:18;;;;;;;;;;;;;;;16.22;65.64;101300.59;5049408;28;19939;-69
2022/10/08 09:55:49;;;;;;;;;;;;;;;16.68;65.12;101304.50;5038447;28;19931;-69
2022/10/08 09:58:19;;;;;;;;;;;;;;;17.00;64.55;101308.44;5057042;28;21292;-69
2022/10/08 10:00:54;;;;;;;;;;;;;;;17.10;63.21;101316.63;5067262;28;20030;-69
2022/10/08 10:03:25;;;;;;;;;;;;;;;16.90;63.18;101312.69;5089431;28;19928;-69
2022/10/08 10:05:52;;;;;;;;;;;;;;;16.42;64.66;101310.69;5062367;28;19964;-69
2022/10/08 10:08:37;;;;;;;;;;;;;;;16.52;64.48;101325.84;5062672;28;19924;-69
2022/10/08 10:11:04;;;;;;;;;;;;;;;16.42;64.55;101322.13;5066997;28;19947;-69
2022/10/08 10:13:34;;;;;;;;;;;;;;;16.03;66.05;101314.19;5068039;28;19924;-69
2022/10/08 10:16:04;;;;;;;;;;;;;;;16.03;67.07;101322.97;5065898;28;20375;-69
2022/10/08 10:18:31;;;;;;;;;;;;;;;15.97;68.82;101333.91;5067628;28;19924;-70
2022/10/08 10:21:00;;;;;;;;;;;;;;;16.11;68.50;101314.53;5057777;28;20541;-69
2022/10/08 10:23:29;;;;;;;;;;;;;;;16.13;68.52;101317.91;5068471;28;19932;-69
2022/10/08 10:25:57;;;;;;;;;;;;;;;16.44;69.21;101317.56;5067744;28;19931;-69
2022/10/08 10:28:31;;;;;;;;;;;;;;;17.09;66.29;101327.31;5055845;28;20402;-69
2022/10/08 10:31:01;;;;;;;;;;;;;;;16.97;64.52;101321.03;5066288;28;19975;-69
2022/10/08 10:33:30;;;;;;;;;;;;;;;17.11;64.63;101322.75;5068098;28;20319;-69
2022/10/08 10:35:59;;;;;;;;;;;;;;;17.13;64.75;101327.00;5054396;28;19932;-70
2022/10/08 10:38:28;;;;;;;;;;;;;;;17.36;64.51;101323.59;5066603;28;19939;-69
2022/10/08 10:41:04;;;;;;;;;;;;;;;17.69;63.61;101320.34;5057267;28;19928;-70
2022/10/08 10:43:35;;;;;;;;;;;;;;;17.28;63.09;101322.41;5066783;28;19924;-69
2022/10/08 10:46:08;;;;;;;;;;;;;;;17.32;62.22;101326.56;5067497;28;20392;-69
2022/10/08 10:48:34;;;;;;;;;;;;;;;17.40;63.31;101326.88;5047892;28;19937;-70
2022/10/08 10:51:08;;;;;;;;;;;;;;;17.45;63.28;101320.25;5050696;28;19924;-69
2022/10/08 10:53:40;;;;;;;;;;;;;;;17.64;61.56;101330.44;5060660;28;19928;-70
2022/10/08 10:56:10;;;;;;;;;;;;;;;17.38;63.00;101329.59;5087332;28;19924;-70
2022/10/08 10:58:43;;;;;;;;;;;;;;;17.68;61.91;101323.97;5070503;28;19931;-70
2022/10/08 11:01:20;;;;;;;;;;;;;;;17.63;62.53;101314.63;5065759;28;21336;-69
2022/10/08 11:03:49;;;;;;;;;;;;;;;17.32;62.57;101326.56;5079601;28;20032;-70
2022/10/08 11:06:36;;;;;;;;;;;;;;;17.81;61.58;101313.31;5061003;28;20316;-70
2022/10/08 11:09:05;;;;;;;;;;;;;;;17.58;62.77;101322.09;5070928;28;19947;-69
2022/10/08 11:11:33;;;;;;;;;;;;;;;17.38;62.43;101320.81;5061536;28;19927;-69
2022/10/08 11:14:17;;;;;;;;;;;;;;;17.33;62.90;101320.31;5075399;28;19931;-70
2022/10/08 11:16:54;;;;;;;;;;;;;;;16.61;64.42;101318.25;5060676;28;20448;-70
2022/10/08 11:19:27;;;;;;;;;;;;;;;16.71;64.87;101312.25;5070601;28;19927;-69
2022/10/08 11:21:58;;;;;;;;;;;;;;;17.22;63.73;101320.22;5060526;28;19928;-69
2022/10/08 11:24:33;;;;;;;;;;;;;;;17.77;62.63;101312.69;5071199;28;19924;-71
2022/10/08 11:27:04;;;;;;;;;;;;;;;18.22;59.78;101324.38;5086312;28;19931;-70
2022/10/08 11:29:33;;;;;;;;;;;;;;;18.29;60.83;101317.66;5076633;28;19933;-70
2022/10/08 11:32:01;;;;;;;;;;;;;;;18.43;60.50;101327.25;5069978;28;20387;-70
2022/10/08 11:34:29;;;;;;;;;;;;;;;18.56;59.18;101316.56;5060380;28;19928;-70
2022/10/08 11:37:00;;;;;;;;;;;;;;;18.15;58.90;101316.97;5078341;28;19924;-69
2022/10/08 11:39:30;;;;;;;;;;;;;;;18.12;59.52;101311.91;5067469;28;19947;-69
2022/10/08 11:42:02;;;;;;;;;;;;;;;18.11;59.09;101313.69;5060301;28;20013;-69
2022/10/08 11:44:29;;;;;;;;;;;;;;;18.54;57.40;101318.50;5069759;28;19947;-69
2022/10/08 11:47:20;;;;;;;;;;;;;;;18.83;54.75;101317.13;5070538;28;20399;-69
2022/10/08 11:49:50;;;;;;;;;;;;;;;19.43;53.58;101328.34;5079045;28;19931;-69
2022/10/08 11:52:17;;;;;;;;;;;;;;;19.53;54.09;101315.13;5089721;28;19931;-69
2022/10/08 11:54:48;;;;;;;;;;;;;;;19.54;51.07;101316.84;5088969;28;19933;-70
2022/10/08 11:57:18;;;;;;;;;;;;;;;19.22;51.27;101308.69;5089422;28;19924;-69
2022/10/08 11:59:46;;;;;;;;;;;;;;;19.25;52.62;101313.75;5066527;28;19924;-69
2022/10/08 12:02:22;;;;;;;;;;;;;;;19.55;51.53;101313.19;5070694;28;19931;-69
2022/10/08 12:04:50;;;;;;;;;;;;;;;19.85;51.84;101310.72;5069498;28;20391;-69
2022/10/08 12:07:23;;;;;;;;;;;;;;;19.87;51.59;101314.13;5059852;28;19935;-69
2022/10/08 12:10:00;;;;;;;;;;;;;;;19.94;50.79;101311.78;5067889;28;20333;-69
2022/10/08 12:12:26;;;;;;;;;;;;;;;19.79;50.77;101311.22;5040571;28;19935;-69
2022/10/08 12:14:52;;;;;;;;;;;;;;;20.20;50.31;101299.00;5075570;28;20285;-69
2022/10/08 12:17:19;;;;;;;;;;;;;;;20.54;49.67;101300.56;5054748;28;19935;-70
2022/10/08 12:20:06;;;;;;;;;;;;;;;20.29;50.06;101296.44;5039437;28;19947;-69
2022/10/08 12:22:44;;;;;;;;;;;;;;;19.83;50.83;101301.16;5049682;28;20341;-69
2022/10/08 12:25:29;;;;;;;;;;;;;;;19.64;49.79;101304.47;5049433;28;19941;-69
2022/10/08 12:28:24;;;;;;;;;;;;;;;19.89;48.57;101284.69;5068457;28;19924;-70
2022/10/08 12:30:53;;;;;;;;;;;;;;;20.46;49.91;101294.19;5069255;28;19924;-70
2022/10/08 12:33:20;;;;;;;;;;;;;;;19.72;48.78;101280.75;5059394;28;20295;-70
2022/10/08 12:35:51;;;;;;;;;;;;;;;19.55;51.22;101289.25;5069912;28;19924;-70
2022/10/08 12:38:30;;;;;;;;;;;;;;;19.76;49.42;101282.22;5072627;28;19924;-70
2022/10/08 12:41:00;;;;;;;;;;;;;;;20.43;47.65;101286.44;5048340;28;19986;-70
2022/10/08 12:43:33;;;;;;;;;;;;;;;20.72;46.74;101292.81;5065195;28;20434;-70
2022/10/08 12:46:06;;;;;;;;;;;;;;;20.51;46.18;101289.31;5059109;28;19931;-70